createdAt,value
2022-12-12T00:00:35.568Z,5.18
2022-12-12T00:03:04.884Z,4.25
2022-12-12T00:05:32.160Z,4.95
2022-12-12T00:07:59.286Z,4.35
2022-12-12T00:10:26.284Z,5.07
2022-12-12T00:12:53.274Z,4.40
2022-12-12T00:15:20.321Z,4.32
2022-12-12T00:17:47.296Z,4.97
2022-12-12T00:20:14.351Z,4.78
2022-12-12T00:22:41.509Z,5.05
2022-12-12T00:25:08.741Z,4.15
2022-12-12T00:27:35.692Z,4.95
2022-12-12T00:30:02.702Z,5.05
2022-12-12T00:32:31.193Z,3.75
2022-12-12T00:34:58.158Z,5.45
2022-12-12T00:37:25.231Z,5.68
2022-12-12T00:39:52.660Z,5.05
2022-12-12T00:42:19.875Z,4.60
2022-12-12T00:44:46.899Z,5.07
2022-12-12T00:47:13.897Z,4.80
2022-12-12T00:49:41.082Z,5.53
2022-12-12T00:52:08.100Z,5.13
2022-12-12T00:54:35.036Z,5.20
2022-12-12T00:57:02.193Z,5.22
2022-12-12T00:59:29.573Z,4.80
2022-12-12T01:01:56.621Z,4.80
2022-12-12T01:04:23.859Z,4.70
2022-12-12T01:06:50.837Z,4.90
2022-12-12T01:09:17.820Z,4.32
2022-12-12T01:11:44.921Z,5.05
2022-12-12T01:14:11.935Z,4.82
2022-12-12T01:16:38.876Z,4.45
2022-12-12T01:19:05.880Z,4.45
2022-12-12T01:21:32.885Z,4.80
2022-12-12T01:23:59.962Z,5.10
2022-12-12T01:26:27.212Z,5.07
2022-12-12T01:28:54.219Z,5.22
2022-12-12T01:31:21.600Z,4.85
2022-12-12T01:33:49.005Z,4.50
2022-12-12T01:36:18.399Z,5.28
2022-12-12T01:38:50.298Z,5.35
2022-12-12T01:41:18.401Z,4.20
2022-12-12T01:43:45.890Z,4.55
2022-12-12T01:46:37.596Z,5.43
2022-12-12T01:49:16.846Z,5.05
2022-12-12T01:51:45.687Z,4.60
2022-12-12T01:54:17.054Z,5.13
2022-12-12T01:56:46.231Z,5.35
2022-12-12T01:59:16.393Z,4.97
2022-12-12T02:01:44.241Z,6.15
2022-12-12T02:04:13.183Z,5.75
2022-12-12T02:06:41.630Z,5.10
2022-12-12T02:09:12.332Z,4.82
2022-12-12T02:11:51.405Z,4.40
2022-12-12T02:14:25.636Z,4.80
2022-12-12T02:16:58.449Z,5.60
2022-12-12T02:19:54.631Z,5.15
2022-12-12T02:22:39.698Z,5.57
2022-12-12T02:25:12.956Z,4.53
2022-12-12T02:28:11.879Z,5.60
2022-12-12T02:30:57.523Z,5.07
2022-12-12T02:33:39.932Z,5.85
2022-12-12T02:36:37.501Z,6.40
2022-12-12T02:39:18.867Z,5.53
2022-12-12T02:41:59.976Z,6.00
2022-12-12T02:44:44.913Z,5.45
2022-12-12T02:47:24.169Z,6.15
2022-12-12T02:50:11.630Z,5.47
2022-12-12T02:52:39.031Z,4.40
2022-12-12T02:55:07.153Z,5.85
2022-12-12T02:57:34.080Z,5.15
2022-12-12T03:00:06.432Z,5.97
2022-12-12T03:02:51.596Z,5.28
2022-12-12T03:06:06.591Z,5.93
2022-12-12T03:08:55.087Z,6.63
2022-12-12T03:11:48.129Z,6.10
2022-12-12T03:14:35.333Z,4.50
2022-12-12T03:17:20.667Z,5.57
2022-12-12T03:20:17.243Z,6.15
2022-12-12T03:23:03.067Z,6.55
2022-12-12T03:25:41.445Z,6.28
2022-12-12T03:28:23.042Z,5.63
2022-12-12T03:30:55.596Z,5.35
2022-12-12T03:33:36.348Z,6.00
2022-12-12T03:36:26.872Z,5.18
2022-12-12T03:38:59.901Z,5.53
2022-12-12T03:41:39.286Z,4.95
2022-12-12T03:44:14.108Z,4.15
2022-12-12T03:47:03.809Z,5.40
2022-12-12T03:49:38.879Z,5.55
2022-12-12T03:52:29.988Z,4.07
2022-12-12T03:55:08.607Z,4.40
2022-12-12T03:57:59.578Z,4.50
2022-12-12T04:00:29.322Z,4.35
2022-12-12T04:03:11.730Z,4.47
2022-12-12T04:06:11.743Z,5.00
2022-12-12T04:08:39.634Z,4.93
2022-12-12T04:11:38.615Z,4.07
2022-12-12T04:14:24.317Z,4.55
2022-12-12T04:17:00.870Z,4.25
2022-12-12T04:20:03.357Z,4.18
2022-12-12T04:22:58.209Z,4.35
2022-12-12T04:26:12.941Z,3.97
2022-12-12T04:28:43.547Z,4.93
2022-12-12T04:31:14.231Z,4.22
2022-12-12T04:33:49.649Z,3.90
2022-12-12T04:36:20.053Z,4.35
2022-12-12T04:38:50.053Z,3.95
2022-12-12T04:41:20.252Z,4.50
2022-12-12T04:43:49.770Z,4.45
2022-12-12T04:46:21.558Z,3.65
2022-12-12T04:48:53.927Z,4.20
2022-12-12T04:51:29.126Z,4.07
2022-12-12T04:54:14.090Z,4.20
2022-12-12T04:56:44.616Z,4.22
2022-12-12T04:59:11.838Z,4.53
2022-12-12T05:01:51.184Z,4.15
2022-12-12T05:04:46.358Z,4.20
2022-12-12T05:07:39.768Z,4.50
2022-12-12T05:10:12.247Z,4.45
2022-12-12T05:12:46.094Z,5.07
2022-12-12T05:15:15.361Z,4.63
2022-12-12T05:17:48.235Z,3.88
2022-12-12T05:20:16.364Z,3.78
2022-12-12T05:22:43.415Z,4.57
2022-12-12T05:25:12.531Z,4.50
2022-12-12T05:27:39.821Z,4.95
2022-12-12T05:30:07.550Z,4.20
2022-12-12T05:32:34.658Z,4.25
2022-12-12T05:35:01.626Z,5.05
2022-12-12T05:37:28.747Z,4.10
2022-12-12T05:39:55.716Z,4.10
2022-12-12T05:42:22.895Z,3.72
2022-12-12T05:44:49.889Z,5.00
2022-12-12T05:47:18.942Z,4.82
2022-12-12T05:49:46.074Z,4.30
2022-12-12T05:52:13.327Z,3.90
2022-12-12T05:54:42.978Z,5.57
2022-12-12T05:57:10.019Z,4.55
2022-12-12T05:59:36.994Z,4.53
2022-12-12T06:02:04.120Z,4.57
2022-12-12T06:04:31.221Z,4.57
2022-12-12T06:06:58.714Z,4.03
2022-12-12T06:09:25.713Z,4.05
2022-12-12T06:11:52.751Z,3.92
2022-12-12T06:14:19.810Z,4.45
2022-12-12T06:16:46.857Z,4.22
2022-12-12T06:19:13.965Z,3.97
2022-12-12T06:21:40.990Z,4.82
2022-12-12T06:24:08.329Z,3.70
2022-12-12T06:26:35.342Z,4.05
2022-12-12T06:29:02.387Z,4.20
2022-12-12T06:31:29.439Z,4.25
2022-12-12T06:33:56.677Z,3.75
2022-12-12T06:36:25.382Z,4.47
2022-12-12T06:38:58.337Z,4.28
2022-12-12T06:41:28.409Z,5.70
2022-12-12T06:43:55.740Z,3.47
2022-12-12T06:46:26.617Z,5.00
2022-12-12T06:48:55.417Z,3.38
2022-12-12T06:51:29.130Z,3.83
2022-12-12T06:53:57.000Z,3.38
2022-12-12T06:56:26.639Z,3.17
2022-12-12T06:58:54.922Z,3.90
2022-12-12T07:01:23.944Z,4.03
2022-12-12T07:03:52.354Z,3.45
2022-12-12T07:06:21.590Z,4.10
2022-12-12T07:08:49.329Z,4.38
2022-12-12T07:11:22.301Z,3.20
2022-12-12T07:13:49.548Z,3.90
2022-12-12T07:16:16.955Z,4.43
2022-12-12T07:18:44.065Z,3.75
2022-12-12T07:21:15.394Z,3.67
2022-12-12T07:23:43.126Z,3.80
2022-12-12T07:26:21.158Z,7.50
2022-12-12T07:28:49.053Z,5.88
2022-12-12T07:31:19.902Z,4.03
2022-12-12T07:33:47.504Z,3.53
2022-12-12T07:36:16.353Z,3.70
2022-12-12T07:38:44.260Z,3.50
2022-12-12T07:41:14.299Z,4.93
2022-12-12T07:43:44.716Z,3.53
2022-12-12T07:46:17.727Z,3.75
2022-12-12T07:48:45.112Z,3.65
2022-12-12T07:51:13.010Z,3.85
2022-12-12T07:53:40.087Z,4.85
2022-12-12T07:56:09.390Z,3.67
2022-12-12T07:58:37.555Z,3.97
2022-12-12T08:01:18.277Z,3.85
2022-12-12T08:03:47.284Z,4.68
2022-12-12T08:06:19.078Z,4.50
2022-12-12T08:08:47.692Z,3.63
2022-12-12T08:11:17.113Z,4.28
2022-12-12T08:13:44.283Z,4.40
2022-12-12T08:16:17.896Z,3.72
2022-12-12T08:18:45.819Z,3.92
2022-12-12T08:21:18.710Z,6.25
2022-12-12T08:23:50.154Z,3.75
2022-12-12T08:26:18.321Z,4.50
2022-12-12T08:28:49.540Z,4.53
2022-12-12T08:31:17.823Z,4.28
2022-12-12T08:33:45.488Z,4.28
2022-12-12T08:36:14.075Z,4.15
2022-12-12T08:38:41.525Z,4.55
2022-12-12T08:41:11.009Z,3.05
2022-12-12T08:43:39.337Z,3.50
2022-12-12T08:46:13.713Z,3.58
2022-12-12T08:48:44.130Z,3.80
2022-12-12T08:51:11.153Z,4.50
2022-12-12T08:53:38.202Z,3.38
2022-12-12T08:56:05.532Z,4.10
2022-12-12T08:58:32.591Z,4.80
2022-12-12T09:00:59.534Z,3.08
2022-12-12T09:03:29.485Z,4.28
2022-12-12T09:05:56.853Z,4.35
2022-12-12T09:08:24.672Z,4.25
2022-12-12T09:10:52.026Z,4.22
2022-12-12T09:13:20.869Z,4.85
2022-12-12T09:15:51.529Z,4.20
2022-12-12T09:18:19.993Z,4.68
2022-12-12T09:20:51.293Z,4.63
2022-12-12T09:23:19.707Z,4.40
2022-12-12T09:25:47.318Z,5.13
2022-12-12T09:28:16.703Z,4.20
2022-12-12T09:30:44.203Z,4.68
2022-12-12T09:33:12.393Z,4.30
2022-12-12T09:35:40.039Z,3.90
2022-12-12T09:38:12.552Z,4.28
2022-12-12T09:41:18.697Z,4.43
2022-12-12T09:44:18.781Z,4.72
2022-12-12T09:47:02.798Z,4.60
2022-12-12T09:49:49.595Z,3.65
2022-12-12T09:52:26.423Z,3.17
2022-12-12T09:54:59.491Z,3.10
2022-12-12T09:57:31.280Z,4.15
2022-12-12T10:00:10.043Z,3.60
2022-12-12T10:03:05.387Z,2.78
2022-12-12T10:06:13.432Z,3.70
2022-12-12T10:09:01.530Z,3.00
2022-12-12T10:11:50.738Z,3.47
2022-12-12T10:14:34.596Z,3.00
2022-12-12T10:17:06.222Z,2.95
2022-12-12T10:19:41.982Z,3.00
2022-12-12T10:22:24.077Z,3.80
2022-12-12T10:24:58.260Z,3.10
2022-12-12T10:27:25.445Z,4.07
2022-12-12T10:29:54.211Z,2.90
2022-12-12T10:32:40.054Z,3.38
2022-12-12T10:35:30.472Z,3.42
2022-12-12T10:38:04.568Z,3.33
2022-12-12T10:40:46.691Z,3.85
2022-12-12T10:43:22.794Z,2.83
2022-12-12T10:46:00.991Z,3.53
2022-12-12T10:48:29.845Z,3.35
2022-12-12T10:51:02.156Z,2.75
2022-12-12T10:53:30.401Z,3.50
2022-12-12T10:56:00.207Z,3.03
2022-12-12T10:58:35.556Z,2.60
2022-12-12T11:01:10.463Z,2.80
2022-12-12T11:03:45.628Z,3.35
2022-12-12T11:06:29.572Z,2.75
2022-12-12T11:09:06.498Z,3.15
2022-12-12T11:11:33.596Z,2.63
2022-12-12T11:14:20.900Z,2.80
2022-12-12T11:16:47.908Z,2.47
2022-12-12T11:19:17.916Z,2.95
2022-12-12T11:21:46.075Z,3.83
2022-12-12T11:24:16.540Z,2.40
2022-12-12T11:26:49.209Z,3.08
2022-12-12T11:29:34.887Z,2.40
2022-12-12T11:32:03.710Z,3.42
2022-12-12T11:34:34.119Z,2.70
2022-12-12T11:37:02.129Z,3.40
2022-12-12T11:39:40.884Z,2.00
2022-12-12T11:42:13.649Z,2.50
2022-12-12T11:44:42.299Z,2.50
2022-12-12T11:47:41.151Z,2.08
2022-12-12T11:50:23.778Z,3.30
2022-12-12T11:52:57.018Z,2.63
2022-12-12T11:55:53.552Z,2.35
2022-12-12T11:58:28.005Z,2.70
2022-12-12T12:01:13.157Z,2.15
2022-12-12T12:04:04.931Z,2.05
2022-12-12T12:06:47.241Z,2.15
2022-12-12T12:09:31.674Z,1.70
2022-12-12T12:12:06.543Z,2.20
2022-12-12T12:14:58.578Z,2.10
2022-12-12T12:17:55.490Z,2.35
2022-12-12T12:20:40.289Z,2.67
2022-12-12T12:23:29.033Z,2.72
2022-12-12T12:26:14.534Z,2.78
2022-12-12T12:28:59.978Z,2.20
2022-12-12T12:31:38.978Z,2.00
2022-12-12T12:34:27.647Z,1.83
2022-12-12T12:37:04.139Z,1.50
2022-12-12T12:39:52.612Z,2.60
2022-12-12T12:42:28.702Z,1.85
2022-12-12T12:45:05.980Z,2.17
2022-12-12T12:47:49.281Z,1.85
2022-12-12T12:50:51.625Z,2.85
2022-12-12T12:53:40.839Z,2.17
2022-12-12T12:56:25.101Z,2.25
2022-12-12T12:58:55.417Z,2.45
2022-12-12T13:01:33.119Z,2.42
2022-12-12T13:04:15.083Z,2.22
2022-12-12T13:07:10.671Z,2.67
2022-12-12T13:09:52.003Z,2.28
2022-12-12T13:12:34.808Z,2.20
2022-12-12T13:15:07.541Z,3.30
2022-12-12T13:17:52.079Z,2.50
2022-12-12T13:20:22.911Z,2.22
2022-12-12T13:22:56.011Z,1.92
2022-12-12T13:25:50.218Z,2.20
2022-12-12T13:28:28.244Z,2.47
2022-12-12T13:31:13.631Z,1.98
2022-12-12T13:33:46.558Z,2.58
2022-12-12T13:36:17.385Z,2.40
2022-12-12T13:38:51.983Z,2.40
2022-12-12T13:41:19.104Z,2.42
2022-12-12T13:43:57.189Z,2.70
2022-12-12T13:46:27.649Z,2.83
2022-12-12T13:49:00.654Z,2.60
2022-12-12T13:51:27.804Z,2.30
2022-12-12T13:54:11.992Z,2.10
2022-12-12T13:56:47.913Z,2.40
2022-12-12T13:59:25.309Z,2.70
2022-12-12T14:02:03.714Z,2.50
2022-12-12T14:04:35.060Z,2.25
2022-12-12T14:07:14.898Z,2.00
2022-12-12T14:09:48.752Z,4.03
2022-12-12T14:12:17.986Z,2.60
2022-12-12T14:14:57.653Z,2.45
2022-12-12T14:17:26.642Z,2.85
2022-12-12T14:19:56.010Z,2.75
2022-12-12T14:22:49.777Z,2.45
2022-12-12T14:25:19.458Z,2.10
2022-12-12T14:27:49.472Z,2.90
2022-12-12T14:30:45.832Z,3.15
2022-12-12T14:33:18.731Z,2.65
2022-12-12T14:35:59.109Z,1.58
2022-12-12T14:38:41.315Z,3.60
2022-12-12T14:41:16.572Z,3.10
2022-12-12T14:44:37.860Z,2.65
2022-12-12T14:46:42.618Z,2.70
2022-12-12T14:49:16.009Z,2.72
2022-12-12T14:51:49.785Z,2.45
2022-12-12T14:54:22.429Z,2.70
2022-12-12T14:56:59.671Z,2.58
2022-12-12T14:59:33.795Z,2.25
2022-12-12T15:02:13.722Z,3.50
2022-12-12T15:04:45.286Z,3.13
2022-12-12T15:07:29.632Z,4.05
2022-12-12T15:09:57.040Z,3.38
2022-12-12T15:12:26.738Z,3.85
2022-12-12T15:14:55.184Z,4.15
2022-12-12T15:17:48.924Z,4.18
2022-12-12T15:20:20.383Z,4.93
2022-12-12T15:22:55.023Z,3.95
2022-12-12T15:25:26.362Z,3.90
2022-12-12T15:27:56.349Z,3.58
2022-12-12T15:30:37.224Z,4.57
2022-12-12T15:33:06.900Z,3.70
2022-12-12T15:35:34.575Z,3.70
2022-12-12T15:38:07.837Z,4.78
2022-12-12T15:40:36.467Z,4.57
2022-12-12T15:43:14.864Z,3.97
2022-12-12T15:45:55.099Z,3.75
2022-12-12T15:48:23.728Z,4.35
2022-12-12T15:50:53.682Z,5.13
2022-12-12T15:53:34.379Z,5.55
2022-12-12T15:56:11.745Z,5.40
2022-12-12T15:58:44.575Z,4.72
2022-12-12T16:01:20.120Z,6.43
2022-12-12T16:04:24.265Z,4.90
2022-12-12T16:06:51.473Z,5.18
2022-12-12T16:09:23.154Z,5.50
2022-12-12T16:11:51.398Z,5.60
2022-12-12T16:14:27.501Z,5.70
2022-12-12T16:16:58.538Z,4.70
2022-12-12T16:19:41.405Z,5.47
2022-12-12T16:22:36.911Z,5.50
2022-12-12T16:25:21.379Z,5.45
2022-12-12T16:28:12.758Z,5.45
2022-12-12T16:30:42.099Z,6.22
2022-12-12T16:33:28.234Z,6.55
2022-12-12T16:35:56.557Z,5.70
2022-12-12T16:38:24.042Z,6.75
2022-12-12T16:40:53.792Z,6.00
2022-12-12T16:43:22.660Z,6.50
2022-12-12T16:45:52.128Z,6.40
2022-12-12T16:48:25.045Z,5.50
2022-12-12T16:50:57.367Z,6.82
2022-12-12T16:53:24.643Z,6.18
2022-12-12T16:55:52.726Z,7.15
2022-12-12T16:58:22.762Z,6.00
2022-12-12T17:00:54.822Z,6.93
2022-12-12T17:03:25.740Z,6.50
2022-12-12T17:05:53.579Z,6.57
2022-12-12T17:08:20.695Z,6.97
2022-12-12T17:10:49.991Z,7.28
2022-12-12T17:13:19.850Z,6.65
2022-12-12T17:15:46.889Z,8.35
2022-12-12T17:18:13.896Z,7.45
2022-12-12T17:20:42.056Z,7.50
2022-12-12T17:23:30.297Z,6.30
2022-12-12T17:26:03.489Z,7.05
2022-12-12T17:28:34.084Z,6.80
2022-12-12T17:31:01.972Z,6.28
2022-12-12T17:33:29.313Z,6.82
2022-12-12T17:36:01.457Z,7.68
2022-12-12T17:38:30.913Z,6.53
2022-12-12T17:40:58.920Z,6.00
2022-12-12T17:43:26.339Z,6.07
2022-12-12T17:46:05.528Z,6.07
2022-12-12T17:48:39.701Z,5.90
2022-12-12T17:51:08.994Z,7.10
2022-12-12T17:53:40.344Z,7.18
2022-12-12T17:56:09.055Z,7.30
2022-12-12T17:58:37.939Z,7.43
2022-12-12T18:01:19.066Z,7.40
2022-12-12T18:03:47.656Z,6.72
2022-12-12T18:06:16.873Z,7.18
2022-12-12T18:08:45.662Z,6.45
2022-12-12T18:11:17.126Z,7.53
2022-12-12T18:13:48.311Z,6.05
2022-12-12T18:16:16.424Z,6.15
2022-12-12T18:18:44.253Z,6.43
2022-12-12T18:21:35.905Z,7.40
2022-12-12T18:24:04.779Z,7.85
2022-12-12T18:26:32.299Z,6.40
2022-12-12T18:29:02.144Z,6.63
2022-12-12T18:31:29.899Z,5.65
2022-12-12T18:33:57.687Z,7.35
2022-12-12T18:36:28.167Z,6.15
2022-12-12T18:39:00.873Z,7.35
2022-12-12T18:41:29.133Z,6.72
2022-12-12T18:43:56.819Z,5.75
2022-12-12T18:46:26.960Z,6.20
2022-12-12T18:48:54.764Z,6.65
2022-12-12T18:51:25.040Z,6.28
2022-12-12T18:53:55.124Z,6.50
2022-12-12T18:56:26.098Z,5.47
2022-12-12T18:58:55.575Z,6.72
2022-12-12T19:01:26.560Z,7.32
2022-12-12T19:03:59.255Z,5.28
2022-12-12T19:06:34.532Z,6.00
2022-12-12T19:09:06.731Z,5.68
2022-12-12T19:11:36.434Z,6.55
2022-12-12T19:14:04.019Z,5.93
2022-12-12T19:16:35.578Z,5.88
2022-12-12T19:19:05.647Z,5.47
2022-12-12T19:21:35.021Z,7.45
2022-12-12T19:24:04.018Z,5.90
2022-12-12T19:26:32.039Z,6.18
2022-12-12T19:29:04.179Z,6.35
2022-12-12T19:31:36.290Z,6.25
2022-12-12T19:34:06.697Z,5.93
2022-12-12T19:36:35.991Z,5.60
2022-12-12T19:39:06.385Z,5.22
2022-12-12T19:41:36.682Z,6.68
2022-12-12T19:44:05.484Z,5.47
2022-12-12T19:46:35.166Z,5.80
2022-12-12T19:49:06.346Z,5.85
2022-12-12T19:51:37.500Z,5.53
2022-12-12T19:54:14.090Z,5.22
2022-12-12T19:56:42.262Z,5.63
2022-12-12T19:59:13.223Z,5.22
2022-12-12T20:01:42.162Z,5.20
2022-12-12T20:04:17.076Z,5.32
2022-12-12T20:06:46.720Z,6.65
2022-12-12T20:09:17.192Z,7.28
2022-12-12T20:11:48.321Z,6.78
2022-12-12T20:14:19.868Z,6.47
2022-12-12T20:16:48.595Z,6.75
2022-12-12T20:19:17.324Z,6.80
2022-12-12T20:22:03.863Z,6.22
2022-12-12T20:24:34.112Z,6.68
2022-12-12T20:27:04.313Z,6.20
2022-12-12T20:29:35.817Z,6.40
2022-12-12T20:32:04.650Z,6.85
2022-12-12T20:34:31.968Z,7.18
2022-12-12T20:37:01.283Z,6.05
2022-12-12T20:39:29.665Z,5.82
2022-12-12T20:41:58.692Z,6.47
2022-12-12T20:44:26.307Z,6.50
2022-12-12T20:46:53.945Z,6.90
2022-12-12T20:49:23.380Z,6.68
2022-12-12T20:51:55.894Z,7.07
2022-12-12T20:54:27.010Z,7.22
2022-12-12T20:56:55.499Z,7.05
2022-12-12T20:59:24.233Z,6.70
2022-12-12T21:01:52.261Z,7.30
2022-12-12T21:04:20.267Z,7.32
2022-12-12T21:06:49.785Z,7.05
2022-12-12T21:09:24.430Z,6.07
2022-12-12T21:11:58.375Z,6.93
2022-12-12T21:14:27.760Z,6.60
2022-12-12T21:16:55.440Z,6.13
2022-12-12T21:19:23.944Z,7.30
2022-12-12T21:21:51.300Z,6.32
2022-12-12T21:24:19.406Z,6.80
2022-12-12T21:26:47.903Z,5.70
2022-12-12T21:29:15.741Z,6.93
2022-12-12T21:31:50.345Z,6.65
2022-12-12T21:34:19.891Z,7.05
2022-12-12T21:36:49.608Z,6.47
2022-12-12T21:39:16.585Z,6.63
2022-12-12T21:41:44.139Z,6.28
2022-12-12T21:44:11.329Z,6.18
2022-12-12T21:46:42.054Z,6.65
2022-12-12T21:49:28.432Z,6.25
2022-12-12T21:51:58.137Z,7.60
2022-12-12T21:54:26.183Z,5.90
2022-12-12T21:56:53.382Z,7.18
2022-12-12T21:59:20.459Z,6.95
2022-12-12T22:01:47.555Z,6.35
2022-12-12T22:04:14.886Z,7.25
2022-12-12T22:06:44.173Z,6.22
2022-12-12T22:09:12.407Z,8.32
2022-12-12T22:11:49.432Z,7.00
2022-12-12T22:14:21.981Z,6.38
2022-12-12T22:16:50.360Z,7.28
2022-12-12T22:19:18.172Z,7.43
2022-12-12T22:21:48.962Z,6.90
2022-12-12T22:24:17.366Z,6.05
2022-12-12T22:26:48.901Z,7.80
2022-12-12T22:29:18.805Z,7.15
2022-12-12T22:31:46.427Z,7.60
2022-12-12T22:34:19.899Z,7.47
2022-12-12T22:36:47.703Z,6.50
2022-12-12T22:39:24.259Z,5.95
2022-12-12T22:41:52.092Z,7.35
2022-12-12T22:44:21.520Z,6.32
2022-12-12T22:46:50.477Z,7.07
2022-12-12T22:49:21.211Z,7.55
2022-12-12T22:51:49.733Z,6.63
2022-12-12T22:54:17.350Z,5.85
2022-12-12T22:56:45.774Z,7.35
2022-12-12T22:59:14.321Z,6.60
2022-12-12T23:01:42.170Z,7.18
2022-12-12T23:04:14.472Z,6.95
2022-12-12T23:06:42.760Z,7.22
2022-12-12T23:09:19.152Z,6.78
2022-12-12T23:11:46.260Z,7.60
2022-12-12T23:14:16.400Z,6.72
2022-12-12T23:16:44.943Z,6.60
2022-12-12T23:19:15.248Z,7.15
2022-12-12T23:21:42.386Z,6.20
2022-12-12T23:24:10.587Z,6.57
2022-12-12T23:26:37.936Z,6.00
2022-12-12T23:29:10.370Z,7.05
2022-12-12T23:31:39.085Z,6.30
2022-12-12T23:34:10.263Z,6.45
2022-12-12T23:36:38.382Z,6.53
2022-12-12T23:39:08.116Z,8.95
2022-12-12T23:41:36.944Z,6.70
2022-12-12T23:44:05.047Z,6.13
2022-12-12T23:46:32.515Z,7.00
2022-12-12T23:49:24.615Z,7.70
2022-12-12T23:51:55.924Z,6.85
2022-12-12T23:54:27.440Z,7.18
2022-12-12T23:56:55.209Z,7.38
2022-12-12T23:59:22.216Z,6.70
